Time;durP1;ratioP1;P1;durP2;ratioP2;P2;SDS_P1;SDS_P2;PMS_P1;PMS_P2;Temp;Humidity;BMP_temperature;BMP_pressure;BME280_temperature;BME280_humidity;BME280_pressure;Samples;Min_cycle;Max_cycle;Signal;HPM_P1;HPM_P2
2022/12/02 00:02:29;;;;;;;47.80;17.17;;;7.60;81.50;;;;;;5113747;28;20024;-75
2022/12/02 00:05:02;;;;;;;46.65;16.25;;;7.60;81.20;;;;;;5112734;28;20016;-75
2022/12/02 00:07:28;;;;;;;43.60;15.23;;;7.50;81.30;;;;;;5112613;28;20032;-74
2022/12/02 00:09:54;;;;;;;46.38;15.00;;;7.50;81.50;;;;;;5113603;28;20077;-74
2022/12/02 00:12:24;;;;;;;44.58;16.92;;;7.50;81.30;;;;;;5113476;28;20039;-74
2022/12/02 00:14:59;;;;;;;44.85;15.70;;;7.50;81.40;;;;;;5113845;28;20012;-75
2022/12/02 00:17:26;;;;;;;42.42;14.38;;;7.50;81.40;;;;;;5113617;28;20017;-74
2022/12/02 00:19:52;;;;;;;38.30;14.88;;;7.60;81.60;;;;;;5113541;28;20047;-74
2022/12/02 00:22:18;;;;;;;45.45;16.05;;;7.60;81.20;;;;;;5095700;28;20024;-75
2022/12/02 00:24:44;;;;;;;48.22;16.52;;;7.50;80.90;;;;;;5112442;28;20035;-75
2022/12/02 00:27:10;;;;;;;41.58;15.10;;;7.50;81.10;;;;;;5113479;28;20020;-74
2022/12/02 00:29:36;;;;;;;45.63;16.23;;;7.50;81.50;;;;;;5112420;28;20479;-74
2022/12/02 00:32:01;;;;;;;46.58;15.85;;;7.50;81.70;;;;;;5113242;28;20127;-75
2022/12/02 00:34:27;;;;;;;44.83;15.43;;;7.50;81.40;;;;;;5113312;28;20055;-74
2022/12/02 00:36:53;;;;;;;43.83;16.13;;;7.50;81.40;;;;;;5113388;28;20051;-75
2022/12/02 00:39:18;;;;;;;50.58;16.95;;;7.40;81.50;;;;;;5113358;28;20494;-74
2022/12/02 00:41:44;;;;;;;48.42;17.63;;;7.40;81.00;;;;;;5113334;28;20047;-75
2022/12/02 00:47:04;;;;;;;51.08;17.65;;;7.40;81.70;;;;;;5041166;28;20034;-75
2022/12/02 00:49:30;;;;;;;54.25;17.90;;;7.40;81.00;;;;;;5113270;28;20054;-75
2022/12/02 00:51:55;;;;;;;51.25;18.83;;;7.30;80.20;;;;;;5113231;28;20039;-74
2022/12/02 00:54:21;;;;;;;55.50;18.02;;;7.20;80.40;;;;;;5112224;28;20036;-75
2022/12/02 00:56:47;;;;;;;57.42;18.38;;;7.20;80.00;;;;;;5112292;28;20035;-74
2022/12/02 00:59:12;;;;;;;46.17;16.25;;;7.10;80.20;;;;;;5113155;28;20033;-75
2022/12/02 01:01:39;;;;;;;52.38;16.17;;;7.10;80.30;;;;;;5113118;28;20024;-75
2022/12/02 01:04:05;;;;;;;57.83;17.67;;;7.10;80.50;;;;;;5095428;28;20501;-74
2022/12/02 01:06:31;;;;;;;53.22;16.80;;;7.00;80.20;;;;;;5114034;28;20032;-74
2022/12/02 01:08:56;;;;;;;53.33;17.20;;;7.00;80.20;;;;;;5116876;28;20032;-74
2022/12/02 01:11:22;;;;;;;52.10;16.90;;;7.00;80.10;;;;;;5116883;28;20032;-75
2022/12/02 01:13:47;;;;;;;47.28;17.08;;;7.00;80.00;;;;;;5098835;28;20043;-75
2022/12/02 01:16:13;;;;;;;47.30;15.35;;;6.90;80.20;;;;;;5116857;28;20048;-75
2022/12/02 01:18:39;;;;;;;50.13;17.73;;;6.90;80.30;;;;;;5116739;28;20077;-74
2022/12/02 01:21:04;;;;;;;47.17;15.30;;;6.90;80.60;;;;;;5115791;28;20028;-74
2022/12/02 01:23:30;;;;;;;43.15;16.63;;;6.90;80.10;;;;;;5116665;28;20028;-75
2022/12/02 01:25:56;;;;;;;42.33;14.05;;;6.90;80.00;;;;;;5116603;28;20595;-75
2022/12/02 01:28:22;;;;;;;44.83;15.70;;;6.80;79.90;;;;;;5116687;28;20028;-74
2022/12/02 01:30:49;;;;;;;41.80;14.82;;;6.80;80.20;;;;;;5115368;28;20161;-74
2022/12/02 01:33:15;;;;;;;42.53;14.65;;;6.80;79.30;;;;;;5116401;28;20044;-74
2022/12/02 01:35:40;;;;;;;46.10;16.10;;;6.80;79.40;;;;;;5115405;28;20031;-74
2022/12/02 01:38:06;;;;;;;47.78;15.50;;;6.70;79.90;;;;;;5116529;28;20028;-74
2022/12/02 01:40:32;;;;;;;41.83;15.02;;;6.80;80.00;;;;;;5116329;28;20031;-74
2022/12/02 01:42:57;;;;;;;48.47;14.82;;;6.70;79.60;;;;;;5116330;28;20032;-74
2022/12/02 01:45:23;;;;;;;46.63;14.07;;;6.70;79.50;;;;;;5116381;28;20035;-74
2022/12/02 01:47:49;;;;;;;38.65;14.95;;;6.70;79.70;;;;;;5115255;28;20028;-74
2022/12/02 01:50:16;;;;;;;37.53;14.60;;;6.70;80.40;;;;;;5116147;28;20028;-74
2022/12/02 01:52:42;;;;;;;46.08;15.45;;;6.70;80.20;;;;;;5116041;28;20033;-74
2022/12/02 01:55:15;;;;;;;46.47;15.57;;;6.80;81.30;;;;;;5116068;28;20020;-74
2022/12/02 01:57:41;;;;;;;42.70;15.40;;;6.80;80.30;;;;;;5116200;28;20080;-74
2022/12/02 02:00:07;;;;;;;42.22;14.65;;;6.80;80.10;;;;;;5115938;28;20028;-74
2022/12/02 02:02:36;;;;;;;40.75;14.73;;;6.80;80.10;;;;;;5115901;28;20047;-74
2022/12/02 02:05:19;;;;;;;43.67;15.60;;;6.80;80.80;;;;;;5114844;28;20020;-75
2022/12/02 02:07:48;;;;;;;39.03;14.38;;;6.80;79.40;;;;;;5114853;28;20024;-74
2022/12/02 02:10:14;;;;;;;40.60;13.32;;;6.80;79.70;;;;;;5115810;28;20020;-74
2022/12/02 02:12:40;;;;;;;39.22;13.05;;;6.80;79.60;;;;;;5115668;28;20038;-74
2022/12/02 02:15:08;;;;;;;38.22;14.00;;;6.80;79.60;;;;;;5114592;28;20115;-75
2022/12/02 02:17:34;;;;;;;40.38;14.20;;;6.80;79.20;;;;;;5115102;28;20075;-74
2022/12/02 02:20:02;;;;;;;47.15;14.88;;;6.80;79.00;;;;;;5115575;28;20020;-74
2022/12/02 02:22:52;;;;;;;41.53;14.10;;;6.80;79.40;;;;;;5114524;28;20045;-75
2022/12/02 02:25:18;;;;;;;38.45;12.93;;;6.70;79.00;;;;;;5114506;28;20049;-74
2022/12/02 02:27:50;;;;;;;43.08;13.73;;;6.80;79.50;;;;;;5115437;28;20087;-74
2022/12/02 02:30:15;;;;;;;43.88;13.98;;;6.70;79.40;;;;;;5115300;28;20042;-75
2022/12/02 02:32:42;;;;;;;41.78;14.25;;;6.80;79.60;;;;;;5115297;28;20044;-74
2022/12/02 02:35:08;;;;;;;39.92;13.85;;;6.70;79.10;;;;;;5114251;28;20028;-74
2022/12/02 02:37:33;;;;;;;38.17;13.55;;;6.70;79.30;;;;;;5115209;28;20084;-74
2022/12/02 02:39:59;;;;;;;41.30;15.05;;;6.70;79.70;;;;;;5115187;28;20038;-74
2022/12/02 02:42:25;;;;;;;40.83;14.57;;;6.70;79.80;;;;;;5115120;28;20028;-75
2022/12/02 02:44:51;;;;;;;41.75;15.15;;;6.70;79.30;;;;;;5115106;28;20020;-74
2022/12/02 02:47:16;;;;;;;45.38;13.77;;;6.70;79.50;;;;;;5097194;28;20028;-74
2022/12/02 02:49:42;;;;;;;42.22;14.65;;;6.70;79.60;;;;;;5114989;28;20095;-75
2022/12/02 02:52:08;;;;;;;42.75;15.38;;;6.70;79.70;;;;;;5115062;28;20047;-74
2022/12/02 02:54:34;;;;;;;45.00;15.27;;;6.80;79.80;;;;;;5114961;28;20039;-75
2022/12/02 02:56:59;;;;;;;42.63;15.43;;;6.80;79.70;;;;;;5114849;28;20054;-75
2022/12/02 02:59:25;;;;;;;42.53;15.18;;;6.80;79.60;;;;;;5114848;28;20043;-74
2022/12/02 03:01:51;;;;;;;41.28;14.60;;;6.80;79.70;;;;;;5114744;28;20024;-74
2022/12/02 03:04:20;;;;;;;42.63;14.35;;;6.80;79.40;;;;;;5114762;28;20028;-74
2022/12/02 03:06:49;;;;;;;43.85;14.63;;;6.80;79.60;;;;;;5114682;28;20033;-75
2022/12/02 03:09:19;;;;;;;39.78;13.93;;;6.80;79.40;;;;;;5113544;28;20030;-75
2022/12/02 03:11:47;;;;;;;41.95;13.48;;;6.80;79.20;;;;;;5114610;28;20027;-74
2022/12/02 03:14:15;;;;;;;40.58;13.68;;;6.70;79.50;;;;;;5114454;28;20020;-75
2022/12/02 03:16:42;;;;;;;41.10;13.05;;;6.70;79.60;;;;;;5114492;28;20050;-74
2022/12/02 03:19:07;;;;;;;40.25;12.40;;;6.60;79.40;;;;;;5114467;28;20024;-75
2022/12/02 03:21:33;;;;;;;43.63;13.93;;;6.50;79.40;;;;;;5114389;28;20016;-74
2022/12/02 03:24:01;;;;;;;35.38;12.63;;;6.50;79.70;;;;;;5113330;28;20036;-74
2022/12/02 03:26:27;;;;;;;37.42;12.55;;;6.60;80.00;;;;;;5114322;28;20046;-74
2022/12/02 03:28:54;;;;;;;41.00;12.93;;;6.50;79.80;;;;;;5113468;28;20032;-74
2022/12/02 03:31:21;;;;;;;39.65;12.98;;;6.60;79.90;;;;;;5114039;28;20052;-75
2022/12/02 03:33:48;;;;;;;42.28;13.00;;;6.60;80.00;;;;;;5114127;28;20024;-75
2022/12/02 03:36:14;;;;;;;34.47;12.18;;;6.60;80.10;;;;;;5114179;28;20089;-74
2022/12/02 03:38:39;;;;;;;35.17;12.00;;;6.60;80.70;;;;;;5113108;28;20020;-74
2022/12/02 03:41:06;;;;;;;37.70;13.15;;;6.60;79.90;;;;;;5114022;28;20024;-75
2022/12/02 03:43:32;;;;;;;34.45;11.95;;;6.60;79.80;;;;;;5114178;28;20028;-74
2022/12/02 03:45:58;;;;;;;36.08;12.23;;;6.60;79.70;;;;;;5113965;28;20479;-74
2022/12/02 03:48:25;;;;;;;34.28;11.32;;;6.60;79.50;;;;;;5113931;28;20035;-74
2022/12/02 03:50:52;;;;;;;35.95;12.30;;;6.50;79.50;;;;;;5113915;28;20039;-74
2022/12/02 03:53:19;;;;;;;39.80;12.93;;;6.60;79.80;;;;;;5113786;28;20024;-74
2022/12/02 03:55:45;;;;;;;38.60;11.63;;;6.60;80.20;;;;;;5113867;28;20027;-74
2022/12/02 03:58:10;;;;;;;29.95;11.75;;;6.60;79.60;;;;;;5113750;28;20028;-74
2022/12/02 04:00:36;;;;;;;32.22;12.30;;;6.50;79.40;;;;;;5113750;28;20028;-74
2022/12/02 04:03:03;;;;;;;33.08;11.48;;;6.50;78.70;;;;;;5113721;28;20131;-74
2022/12/02 04:05:29;;;;;;;34.63;12.45;;;6.50;79.10;;;;;;5112782;28;20028;-74
2022/12/02 04:07:54;;;;;;;36.45;10.48;;;6.50;78.60;;;;;;5113580;28;20052;-75
2022/12/02 04:10:20;;;;;;;32.28;10.50;;;6.40;79.00;;;;;;5113617;28;20039;-74
2022/12/02 04:12:46;;;;;;;34.75;11.70;;;6.30;79.00;;;;;;5113588;28;20020;-75
2022/12/02 04:15:11;;;;;;;28.05;10.68;;;6.40;79.10;;;;;;5113579;28;20380;-74
2022/12/02 04:17:37;;;;;;;31.67;10.52;;;6.30;78.80;;;;;;5113707;28;20020;-74
2022/12/02 04:20:05;;;;;;;36.63;10.63;;;6.30;78.90;;;;;;5113509;28;20039;-74
2022/12/02 04:22:30;;;;;;;37.53;11.70;;;6.20;79.00;;;;;;5112500;28;20028;-74
2022/12/02 04:24:58;;;;;;;29.63;10.50;;;6.20;79.20;;;;;;5112448;28;20039;-74
2022/12/02 04:27:24;;;;;;;34.20;10.82;;;6.20;79.00;;;;;;5113501;28;20016;-74
2022/12/02 04:29:50;;;;;;;30.85;10.93;;;6.30;79.50;;;;;;5113004;28;20038;-75
2022/12/02 04:32:16;;;;;;;33.53;11.68;;;6.30;79.40;;;;;;5112490;28;20032;-74
2022/12/02 04:34:41;;;;;;;33.78;10.20;;;6.30;79.30;;;;;;5113366;28;20031;-74
2022/12/02 04:37:07;;;;;;;32.90;11.20;;;6.30;79.20;;;;;;5113508;28;20028;-74
2022/12/02 04:39:33;;;;;;;31.17;10.27;;;6.30;79.40;;;;;;5112434;28;20032;-74
2022/12/02 04:41:58;;;;;;;33.05;10.40;;;6.20;79.50;;;;;;5116849;28;20024;-74
2022/12/02 04:44:24;;;;;;;31.02;10.57;;;6.20;79.70;;;;;;5117413;28;20079;-74
2022/12/02 04:46:49;;;;;;;32.38;10.30;;;6.30;79.80;;;;;;5099660;28;20028;-74
2022/12/02 04:49:15;;;;;;;32.25;9.52;;;6.30;79.60;;;;;;5116283;28;20058;-74
2022/12/02 04:51:40;;;;;;;30.00;10.27;;;6.30;79.60;;;;;;5117278;28;20020;-74
2022/12/02 04:54:06;;;;;;;31.25;9.95;;;6.30;80.00;;;;;;5117174;28;20390;-74
2022/12/02 04:56:32;;;;;;;27.05;9.93;;;6.30;79.60;;;;;;5116140;28;20028;-75
2022/12/02 04:58:57;;;;;;;28.73;10.18;;;6.30;79.80;;;;;;5099314;28;20028;-74
2022/12/02 05:01:23;;;;;;;32.42;10.70;;;6.40;79.60;;;;;;5117100;28;20043;-74
2022/12/02 05:03:48;;;;;;;36.45;10.43;;;6.40;79.30;;;;;;5117042;28;20032;-74
2022/12/02 05:06:14;;;;;;;27.48;10.30;;;6.40;79.20;;;;;;5115991;28;20082;-74
2022/12/02 05:08:40;;;;;;;31.33;10.27;;;6.40;79.30;;;;;;5116962;28;20048;-74
2022/12/02 05:11:05;;;;;;;30.40;10.13;;;6.40;79.20;;;;;;5116891;28;20033;-74
2022/12/02 05:13:31;;;;;;;28.48;10.38;;;6.30;79.40;;;;;;5116785;28;20058;-74
2022/12/02 05:15:56;;;;;;;28.00;9.70;;;6.30;79.40;;;;;;5116868;28;20024;-75
2022/12/02 05:18:22;;;;;;;30.08;10.35;;;6.30;79.50;;;;;;5115806;28;20044;-74
2022/12/02 05:20:48;;;;;;;33.58;10.85;;;6.30;79.60;;;;;;5116756;28;20028;-74
2022/12/02 05:23:13;;;;;;;29.05;9.52;;;6.30;79.30;;;;;;5115594;28;20057;-74
2022/12/02 05:25:39;;;;;;;25.02;9.80;;;6.30;79.00;;;;;;5116659;28;20051;-74
2022/12/02 05:28:05;;;;;;;31.40;10.07;;;6.20;79.20;;;;;;5116609;28;20088;-74
2022/12/02 05:30:31;;;;;;;31.75;10.52;;;6.20;79.20;;;;;;5116330;28;20123;-74
2022/12/02 05:32:56;;;;;;;29.35;10.63;;;6.20;79.30;;;;;;5115372;28;20036;-74
2022/12/02 05:35:22;;;;;;;30.58;9.48;;;6.10;79.60;;;;;;5116587;28;20024;-74
2022/12/02 05:37:47;;;;;;;27.77;9.00;;;6.10;79.80;;;;;;5116430;28;20035;-74
2022/12/02 05:40:13;;;;;;;26.75;9.27;;;6.10;79.90;;;;;;5115439;28;20028;-74
2022/12/02 05:42:40;;;;;;;26.40;8.93;;;6.10;79.30;;;;;;5116344;28;20041;-74
2022/12/02 05:45:24;;;;;;;27.08;9.00;;;6.10;79.80;;;;;;5116288;28;20020;-74
2022/12/02 05:47:53;;;;;;;26.40;8.80;;;6.00;80.20;;;;;;5115344;28;20043;-74
2022/12/02 05:50:20;;;;;;;28.63;9.63;;;6.00;80.30;;;;;;5116237;28;20028;-74
2022/12/02 05:52:48;;;;;;;24.58;8.50;;;6.10;80.40;;;;;;5114140;28;20020;-74
2022/12/02 05:55:22;;;;;;;31.33;8.65;;;6.10;80.20;;;;;;5116088;28;20020;-74
2022/12/02 05:57:48;;;;;;;26.08;8.45;;;6.10;80.40;;;;;;5115140;28;20048;-74
2022/12/02 06:00:16;;;;;;;28.00;10.20;;;6.10;80.40;;;;;;5114957;28;20035;-74
2022/12/02 06:02:46;;;;;;;34.28;8.77;;;6.00;80.30;;;;;;5115957;28;20050;-75
2022/12/02 06:05:24;;;;;;;32.72;10.43;;;6.00;80.50;;;;;;5114882;28;20032;-74
2022/12/02 06:07:56;;;;;;;22.75;7.50;;;6.10;80.80;;;;;;5114797;28;20150;-74
2022/12/02 06:10:25;;;;;;;;;;;6.10;80.60;;;;;;5116290;28;20027;-74
2022/12/02 06:12:53;;;;;;;26.35;7.82;;;6.00;80.60;;;;;;5115682;28;19915;-74
2022/12/02 06:15:18;;;;;;;25.65;8.23;;;6.10;81.00;;;;;;5115691;28;20016;-74
2022/12/02 06:17:44;;;;;;;22.63;8.50;;;6.10;81.10;;;;;;5115792;28;20031;-74
2022/12/02 06:20:23;;;;;;;28.35;8.60;;;6.00;81.10;;;;;;5114561;28;20043;-74
2022/12/02 06:22:49;;;;;;;26.05;8.77;;;6.10;81.30;;;;;;5115632;28;20024;-74
2022/12/02 06:25:27;;;;;;;23.17;8.85;;;6.10;81.20;;;;;;5114655;28;20024;-75
2022/12/02 06:27:55;;;;;;;24.50;8.38;;;6.20;81.10;;;;;;5115462;28;20028;-74
2022/12/02 06:30:21;;;;;;;25.42;8.68;;;6.20;81.00;;;;;;5115241;28;20048;-74
2022/12/02 06:32:58;;;;;;;23.58;8.20;;;6.20;80.70;;;;;;5115102;28;20039;-75
2022/12/02 06:35:27;;;;;;;25.05;8.57;;;6.30;80.60;;;;;;5115353;28;20025;-74
2022/12/02 06:38:01;;;;;;;25.33;8.88;;;6.30;80.50;;;;;;5115150;28;20132;-74
2022/12/02 06:40:31;;;;;;;28.13;8.73;;;6.30;80.60;;;;;;5115237;28;20017;-74
2022/12/02 06:43:00;;;;;;;24.52;8.30;;;6.30;80.60;;;;;;5115152;28;20034;-75
2022/12/02 06:45:33;;;;;;;26.10;8.20;;;6.30;80.50;;;;;;5115093;28;20483;-74
2022/12/02 06:48:23;;;;;;;24.38;8.18;;;6.30;80.50;;;;;;5115048;28;20032;-74
2022/12/02 06:50:49;;;;;;;24.67;8.25;;;6.30;80.60;;;;;;5104123;28;20047;-74
2022/12/02 06:53:33;;;;;;;26.25;8.85;;;6.30;80.50;;;;;;5114004;28;20032;-74
2022/12/02 06:56:15;;;;;;;22.10;7.95;;;6.30;80.40;;;;;;5113981;28;20016;-74
2022/12/02 06:58:41;;;;;;;27.63;8.45;;;6.20;80.40;;;;;;5114999;28;20028;-74
2022/12/02 07:01:06;;;;;;;23.75;8.70;;;6.20;80.40;;;;;;5114800;28;20032;-74
2022/12/02 07:03:35;;;;;;;25.85;8.85;;;6.20;80.40;;;;;;5114682;28;20027;-74
2022/12/02 07:06:23;;;;;;;21.70;7.88;;;6.20;80.60;;;;;;5114814;28;20024;-73
2022/12/02 07:08:49;;;;;;;23.17;8.35;;;6.20;80.50;;;;;;5113612;28;20102;-74
2022/12/02 07:11:18;;;;;;;22.33;8.10;;;6.20;80.60;;;;;;5113721;28;20028;-74
2022/12/02 07:13:44;;;;;;;25.50;8.00;;;6.20;80.70;;;;;;5113598;28;20046;-75
2022/12/02 07:16:49;;;;;;;26.02;8.38;;;6.20;80.70;;;;;;5113654;28;20032;-74
2022/12/02 07:19:36;;;;;;;22.15;7.03;;;6.30;80.80;;;;;;5032551;28;20032;-74
2022/12/02 07:22:10;;;;;;;24.25;7.95;;;6.20;80.40;;;;;;5032501;28;20089;-74
2022/12/02 07:24:35;;;;;;;24.30;8.30;;;6.20;80.10;;;;;;5087679;28;20028;-74
2022/12/02 07:27:01;;;;;;;29.98;8.88;;;6.10;80.30;;;;;;5114313;28;20103;-74
2022/12/02 07:29:29;;;;;;;28.25;9.25;;;6.20;80.40;;;;;;5114282;28;20028;-74
2022/12/02 07:31:55;;;;;;;30.33;9.90;;;6.10;80.10;;;;;;5114080;28;20059;-74
2022/12/02 07:34:21;;;;;;;27.88;7.95;;;6.10;80.30;;;;;;5113112;28;20032;-74
2022/12/02 07:36:47;;;;;;;26.08;8.82;;;6.20;80.40;;;;;;5113126;28;20020;-74
2022/12/02 07:39:12;;;;;;;28.25;10.13;;;6.20;80.40;;;;;;5096205;28;20028;-75
2022/12/02 07:41:38;;;;;;;29.02;10.30;;;6.20;80.40;;;;;;5113071;28;20028;-74
2022/12/02 07:44:04;;;;;;;27.52;10.10;;;6.20;80.40;;;;;;5114040;28;20048;-74
2022/12/02 07:46:30;;;;;;;31.50;9.85;;;6.20;80.50;;;;;;5113985;28;20084;-74
2022/12/02 07:48:56;;;;;;;28.30;10.07;;;6.30;80.70;;;;;;5113969;28;20502;-74
2022/12/02 07:51:21;;;;;;;29.00;9.82;;;6.30;80.80;;;;;;5113928;28;20091;-75
2022/12/02 07:53:47;;;;;;;32.25;10.98;;;6.30;80.80;;;;;;5113792;28;20032;-74
2022/12/02 07:56:13;;;;;;;30.73;10.90;;;6.30;80.80;;;;;;5113842;28;20024;-74
2022/12/02 07:58:38;;;;;;;25.15;9.60;;;6.30;80.80;;;;;;5113801;28;20539;-74
2022/12/02 08:01:04;;;;;;;30.63;10.88;;;6.30;80.90;;;;;;5113510;28;20031;-74
2022/12/02 08:03:29;;;;;;;27.08;9.95;;;6.20;81.10;;;;;;5113767;28;20051;-74
2022/12/02 08:05:55;;;;;;;30.08;10.23;;;6.20;81.20;;;;;;5113720;28;20046;-74
2022/12/02 08:08:21;;;;;;;27.60;9.82;;;6.10;81.60;;;;;;5113612;28;20368;-74
2022/12/02 08:10:46;;;;;;;23.58;9.13;;;6.10;81.70;;;;;;5095799;28;20054;-74
2022/12/02 08:13:12;;;;;;;28.80;9.00;;;6.00;81.90;;;;;;5113529;28;20036;-74
2022/12/02 08:15:37;;;;;;;28.02;8.25;;;6.00;82.00;;;;;;5113104;28;20035;-74
2022/12/02 08:18:03;;;;;;;23.45;8.85;;;6.10;82.30;;;;;;5095822;28;20045;-74
2022/12/02 08:20:29;;;;;;;22.65;8.00;;;6.00;82.60;;;;;;5112626;28;20048;-74
2022/12/02 08:22:55;;;;;;;26.00;9.00;;;6.00;82.40;;;;;;5112462;28;20500;-75
2022/12/02 08:25:20;;;;;;;24.88;9.23;;;6.00;82.90;;;;;;5095626;28;20081;-74
2022/12/02 08:27:46;;;;;;;23.00;8.15;;;6.00;83.10;;;;;;5113404;28;20024;-74
2022/12/02 08:30:14;;;;;;;24.48;8.00;;;6.00;83.30;;;;;;5113368;28;20482;-74
2022/12/02 08:32:40;;;;;;;23.75;7.75;;;6.00;83.50;;;;;;5113398;28;20069;-75
2022/12/02 08:35:06;;;;;;;22.83;7.85;;;6.00;83.60;;;;;;5112474;28;20024;-75
2022/12/02 08:37:31;;;;;;;23.75;7.78;;;6.00;83.70;;;;;;5095589;28;20017;-75
2022/12/02 08:39:57;;;;;;;26.17;8.02;;;5.90;83.70;;;;;;5095433;28;20052;-75
2022/12/02 08:42:22;;;;;;;22.70;7.07;;;5.90;83.70;;;;;;5112478;28;20035;-74
2022/12/02 08:44:48;;;;;;;25.48;7.97;;;5.80;84.20;;;;;;5112360;28;20036;-75
2022/12/02 08:47:13;;;;;;;24.98;8.27;;;5.80;83.90;;;;;;5112327;28;20028;-74
2022/12/02 08:49:39;;;;;;;25.13;8.88;;;5.90;84.20;;;;;;5113266;28;20040;-74
2022/12/02 08:52:05;;;;;;;25.67;7.88;;;5.90;84.30;;;;;;5113215;28;20028;-75
2022/12/02 08:54:30;;;;;;;25.08;8.20;;;5.80;84.60;;;;;;5113158;28;20032;-74
2022/12/02 08:56:59;;;;;;;23.60;8.38;;;5.80;84.40;;;;;;5112271;28;20016;-74
2022/12/02 08:59:25;;;;;;;23.13;8.00;;;5.80;84.50;;;;;;5113215;28;20023;-74
2022/12/02 09:01:51;;;;;;;19.98;7.18;;;5.80;85.80;;;;;;5112166;28;20039;-74
2022/12/02 09:04:16;;;;;;;22.13;7.45;;;5.80;84.90;;;;;;5095257;28;20058;-74
2022/12/02 09:06:42;;;;;;;23.10;7.63;;;5.80;84.90;;;;;;5112127;28;20044;-74
2022/12/02 09:09:07;;;;;;;21.38;7.88;;;5.90;84.90;;;;;;5112964;28;20045;-74
2022/12/02 09:11:33;;;;;;;24.48;7.95;;;5.90;85.10;;;;;;5113000;28;20055;-73
2022/12/02 09:13:59;;;;;;;24.90;8.18;;;5.90;85.00;;;;;;5112976;28;20032;-75
2022/12/02 09:16:25;;;;;;;29.00;7.63;;;5.90;85.10;;;;;;5113027;28;20106;-74
2022/12/02 09:18:50;;;;;;;30.30;8.98;;;5.80;85.20;;;;;;5111961;28;20028;-74
2022/12/02 09:21:16;;;;;;;24.92;7.72;;;5.90;85.40;;;;;;5112960;28;20016;-76
2022/12/02 09:23:42;;;;;;;26.02;9.05;;;5.80;85.50;;;;;;5112974;28;20028;-76
2022/12/02 09:26:07;;;;;;;25.30;7.72;;;5.80;85.40;;;;;;5112097;28;20029;-76
2022/12/02 09:28:33;;;;;;;30.90;8.95;;;5.80;85.60;;;;;;5115538;28;20039;-76
2022/12/02 09:30:58;;;;;;;27.50;8.50;;;5.80;85.50;;;;;;5116361;28;20060;-76
2022/12/02 09:33:24;;;;;;;29.30;8.65;;;5.90;85.60;;;;;;5116468;28;20053;-75
2022/12/02 09:35:50;;;;;;;27.05;9.20;;;5.90;85.70;;;;;;5115445;28;20039;-75
2022/12/02 09:38:15;;;;;;;30.55;9.70;;;5.90;85.60;;;;;;5115529;28;20024;-75
2022/12/02 09:40:41;;;;;;;29.25;8.48;;;5.90;85.70;;;;;;5115397;28;20028;-75
2022/12/02 09:43:07;;;;;;;35.28;9.93;;;5.90;85.70;;;;;;5116315;28;20039;-75
2022/12/02 09:45:33;;;;;;;29.40;9.00;;;5.90;85.80;;;;;;5115361;28;20036;-75
2022/12/02 09:47:59;;;;;;;34.75;10.43;;;5.90;85.40;;;;;;5116205;28;20050;-75
2022/12/02 09:50:26;;;;;;;29.88;9.30;;;5.80;85.50;;;;;;5115269;28;20506;-74
2022/12/02 09:52:55;;;;;;;37.05;10.77;;;5.80;85.60;;;;;;5116080;28;20074;-74
2022/12/02 09:55:21;;;;;;;33.20;10.15;;;5.80;85.60;;;;;;5116091;28;20024;-75
2022/12/02 09:57:46;;;;;;;35.83;10.27;;;5.80;85.60;;;;;;5116074;28;20079;-75
2022/12/02 10:00:18;;;;;;;32.90;9.07;;;5.80;85.50;;;;;;5116019;28;20028;-75
2022/12/02 10:02:49;;;;;;;33.37;10.40;;;5.80;85.80;;;;;;5116008;28;20048;-75
2022/12/02 10:05:21;;;;;;;28.42;9.13;;;5.80;86.00;;;;;;5116000;28;20042;-75
2022/12/02 10:07:49;;;;;;;35.63;10.60;;;5.80;85.70;;;;;;5115817;28;20024;-75
2022/12/02 10:10:18;;;;;;;32.75;10.20;;;5.90;85.80;;;;;;5115839;28;20059;-75
2022/12/02 10:12:44;;;;;;;26.70;9.35;;;5.90;85.50;;;;;;5115733;28;20012;-75
2022/12/02 10:15:24;;;;;;;39.95;11.27;;;5.80;85.40;;;;;;5115729;28;20028;-75
2022/12/02 10:17:50;;;;;;;37.53;10.48;;;5.80;85.70;;;;;;5115749;28;20042;-75
2022/12/02 10:20:22;;;;;;;34.97;10.38;;;5.80;85.50;;;;;;5114752;28;20028;-74
2022/12/02 10:23:04;;;;;;;36.58;10.70;;;5.80;86.00;;;;;;5115598;28;20084;-74
2022/12/02 10:25:30;;;;;;;35.25;9.13;;;5.80;85.60;;;;;;5115552;28;20078;-74
2022/12/02 10:27:56;;;;;;;42.53;10.88;;;5.80;85.60;;;;;;5114721;28;20025;-75
2022/12/02 10:30:24;;;;;;;34.25;10.15;;;5.90;85.70;;;;;;5115258;28;20079;-74
2022/12/02 10:33:02;;;;;;;35.53;9.75;;;5.90;85.30;;;;;;5114272;28;20016;-74
2022/12/02 10:35:41;;;;;;;40.60;11.15;;;5.90;85.50;;;;;;5115349;28;20076;-75
2022/12/02 10:38:28;;;;;;;39.72;9.77;;;5.80;85.50;;;;;;5113911;28;20088;-74
2022/12/02 10:41:13;;;;;;;34.67;11.63;;;5.80;86.30;;;;;;5115270;28;20020;-74
2022/12/02 10:43:40;;;;;;;35.08;9.77;;;5.90;85.50;;;;;;5115339;28;20028;-75
2022/12/02 10:46:06;;;;;;;47.20;11.40;;;5.90;85.60;;;;;;5115110;28;20028;-74
2022/12/02 10:48:34;;;;;;;39.33;10.65;;;5.90;85.50;;;;;;5115088;28;20020;-74
2022/12/02 10:51:00;;;;;;;38.00;10.13;;;5.90;85.30;;;;;;5115038;28;20039;-74
2022/12/02 10:53:28;;;;;;;34.40;10.18;;;5.90;85.30;;;;;;5114931;28;20032;-75
2022/12/02 10:55:54;;;;;;;35.10;11.07;;;5.90;85.40;;;;;;5114962;28;20016;-74
2022/12/02 10:58:28;;;;;;;36.95;11.45;;;5.90;85.30;;;;;;5113845;28;20028;-74
2022/12/02 11:00:55;;;;;;;36.00;10.73;;;5.90;84.90;;;;;;5114902;28;20085;-75
2022/12/02 11:03:21;;;;;;;40.00;9.75;;;5.90;85.10;;;;;;5114840;28;20036;-75
2022/12/02 11:05:47;;;;;;;35.25;9.88;;;5.90;85.10;;;;;;5114754;28;20029;-74
2022/12/02 11:08:25;;;;;;;32.65;9.50;;;6.00;84.90;;;;;;5113591;28;20107;-74
2022/12/02 11:11:15;;;;;;;30.65;9.45;;;5.90;84.50;;;;;;5113673;28;20031;-75
2022/12/02 11:13:55;;;;;;;39.58;11.77;;;5.90;84.40;;;;;;5114577;28;20024;-74
2022/12/02 11:16:27;;;;;;;27.80;9.20;;;5.90;84.20;;;;;;5114737;28;20084;-74
2022/12/02 11:19:03;;;;;;;31.30;8.45;;;5.90;84.30;;;;;;5114522;28;20028;-74
2022/12/02 11:21:29;;;;;;;39.38;9.45;;;5.90;84.80;;;;;;5114463;28;20378;-75
2022/12/02 11:24:27;;;;;;;34.22;9.50;;;5.90;85.00;;;;;;5114378;28;20032;-74
2022/12/02 11:26:59;;;;;;;28.92;8.48;;;5.90;84.60;;;;;;5098075;28;20087;-75
2022/12/02 11:29:26;;;;;;;37.90;10.32;;;5.90;84.30;;;;;;5114348;28;20031;-74
2022/12/02 11:32:20;;;;;;;30.50;9.75;;;5.80;85.10;;;;;;5096403;28;20072;-74
2022/12/02 11:35:12;;;;;;;31.08;9.50;;;5.90;84.40;;;;;;5114219;28;20024;-74
2022/12/02 11:37:40;;;;;;;36.30;10.33;;;5.90;84.40;;;;;;5114266;28;20029;-75
2022/12/02 11:40:14;;;;;;;34.88;9.75;;;5.80;84.10;;;;;;5114116;28;20020;-74
2022/12/02 11:42:42;;;;;;;27.17;8.95;;;5.80;84.10;;;;;;5114059;28;20024;-74
2022/12/02 11:45:16;;;;;;;32.03;9.00;;;5.80;84.10;;;;;;5114036;28;20024;-75
2022/12/02 11:47:58;;;;;;;30.88;9.10;;;5.80;84.10;;;;;;5112986;28;20031;-74
2022/12/02 11:50:26;;;;;;;33.65;8.52;;;5.80;83.70;;;;;;5112319;28;20034;-74
2022/12/02 11:53:24;;;;;;;34.85;8.68;;;5.70;83.50;;;;;;5113817;28;20016;-75
2022/12/02 11:55:52;;;;;;;36.13;8.00;;;5.70;84.50;;;;;;5069414;28;20054;-74
2022/12/02 11:58:29;;;;;;;27.77;9.15;;;5.70;83.20;;;;;;5113824;28;20027;-74
2022/12/02 12:01:14;;;;;;;37.45;9.25;;;5.80;83.60;;;;;;5113929;28;20111;-75
2022/12/02 12:03:41;;;;;;;31.02;8.85;;;5.80;83.80;;;;;;5113838;28;20024;-74
2022/12/02 12:06:18;;;;;;;32.75;9.25;;;5.80;83.80;;;;;;5113723;28;20031;-74
2022/12/02 12:08:53;;;;;;;30.10;8.48;;;5.90;83.50;;;;;;5112550;28;20028;-74
2022/12/02 12:11:35;;;;;;;33.40;9.13;;;5.90;83.70;;;;;;5113671;28;20020;-75
2022/12/02 12:14:10;;;;;;;37.83;9.43;;;6.00;83.80;;;;;;5113606;28;20027;-74
2022/12/02 12:16:39;;;;;;;28.67;8.95;;;6.00;83.80;;;;;;5112554;28;20032;-74
2022/12/02 12:19:25;;;;;;;30.83;8.95;;;6.00;83.40;;;;;;5113555;28;20026;-74
2022/12/02 12:21:54;;;;;;;24.90;8.05;;;6.00;83.40;;;;;;5113509;28;20047;-74
2022/12/02 12:24:21;;;;;;;27.02;8.13;;;6.00;83.00;;;;;;5112564;28;20016;-74
2022/12/02 12:26:49;;;;;;;23.38;8.27;;;6.00;82.50;;;;;;5113502;28;20026;-75
2022/12/02 12:29:15;;;;;;;30.20;7.82;;;6.00;82.90;;;;;;5113483;28;20046;-75
2022/12/02 12:31:41;;;;;;;28.55;7.85;;;6.00;82.70;;;;;;5113306;28;20071;-74
2022/12/02 12:34:07;;;;;;;21.77;8.38;;;6.00;82.10;;;;;;5113378;28;20050;-75
2022/12/02 12:36:34;;;;;;;22.58;7.93;;;6.00;82.10;;;;;;5113390;28;20107;-74
2022/12/02 12:38:59;;;;;;;20.05;6.72;;;6.00;81.70;;;;;;5113408;28;20016;-74
2022/12/02 12:41:25;;;;;;;22.20;6.68;;;6.00;82.20;;;;;;5112259;28;20070;-75
2022/12/02 12:43:51;;;;;;;22.88;6.75;;;6.00;82.00;;;;;;5113352;28;20054;-75
2022/12/02 12:46:16;;;;;;;26.48;7.60;;;6.10;82.30;;;;;;5113316;28;20062;-74
2022/12/02 12:48:42;;;;;;;29.55;8.60;;;6.10;82.30;;;;;;5113271;28;20047;-74
2022/12/02 12:51:08;;;;;;;32.88;8.77;;;6.10;81.90;;;;;;5112391;28;20032;-75